sensor_id;sensor_type;location;lat;lon;timestamp;temperature;humidity
6752;DHT22;3413;47.680;9.166;2024-02-28T00:04:49;12.90;68.70
6752;DHT22;3413;47.680;9.166;2024-02-28T00:09:51;13.00;68.80
6752;DHT22;3413;47.680;9.166;2024-02-28T00:14:53;13.00;68.80
6752;DHT22;3413;47.680;9.166;2024-02-28T00:19:55;13.00;68.80
6752;DHT22;3413;47.680;9.166;2024-02-28T00:24:57;13.10;68.90
6752;DHT22;3413;47.680;9.166;2024-02-28T00:29:59;12.90;68.70
6752;DHT22;3413;47.680;9.166;2024-02-28T00:35:01;12.90;68.80
6752;DHT22;3413;47.680;9.166;2024-02-28T00:40:03;12.90;68.80
6752;DHT22;3413;47.680;9.166;2024-02-28T00:45:07;12.90;68.70
6752;DHT22;3413;47.680;9.166;2024-02-28T00:50:10;12.90;68.80
6752;DHT22;3413;47.680;9.166;2024-02-28T00:55:12;12.90;69.00
6752;DHT22;3413;47.680;9.166;2024-02-28T01:00:15;13.00;68.90
6752;DHT22;3413;47.680;9.166;2024-02-28T01:05:17;13.00;68.90
6752;DHT22;3413;47.680;9.166;2024-02-28T01:10:19;13.00;69.00
6752;DHT22;3413;47.680;9.166;2024-02-28T01:15:20;13.00;69.10
6752;DHT22;3413;47.680;9.166;2024-02-28T01:20:22;13.00;69.10
6752;DHT22;3413;47.680;9.166;2024-02-28T01:25:24;12.90;68.90
6752;DHT22;3413;47.680;9.166;2024-02-28T01:30:26;12.80;68.90
6752;DHT22;3413;47.680;9.166;2024-02-28T01:35:28;12.80;69.00
6752;DHT22;3413;47.680;9.166;2024-02-28T01:40:30;12.80;69.00
6752;DHT22;3413;47.680;9.166;2024-02-28T01:45:32;12.80;68.90
6752;DHT22;3413;47.680;9.166;2024-02-28T01:50:35;12.80;69.10
6752;DHT22;3413;47.680;9.166;2024-02-28T01:55:39;12.80;68.90
6752;DHT22;3413;47.680;9.166;2024-02-28T02:00:42;12.80;68.80
6752;DHT22;3413;47.680;9.166;2024-02-28T02:05:45;12.70;68.90
6752;DHT22;3413;47.680;9.166;2024-02-28T02:10:47;12.80;68.80
6752;DHT22;3413;47.680;9.166;2024-02-28T02:15:49;12.80;68.70
6752;DHT22;3413;47.680;9.166;2024-02-28T02:20:55;12.90;68.70
6752;DHT22;3413;47.680;9.166;2024-02-28T02:26:00;12.80;68.90
6752;DHT22;3413;47.680;9.166;2024-02-28T02:31:03;12.80;68.60
6752;DHT22;3413;47.680;9.166;2024-02-28T02:36:05;12.80;68.60
6752;DHT22;3413;47.680;9.166;2024-02-28T02:41:07;12.80;68.70
6752;DHT22;3413;47.680;9.166;2024-02-28T02:46:09;12.90;68.70
6752;DHT22;3413;47.680;9.166;2024-02-28T02:51:11;12.90;68.80
6752;DHT22;3413;47.680;9.166;2024-02-28T02:56:14;12.90;68.70
6752;DHT22;3413;47.680;9.166;2024-02-28T03:01:16;12.80;68.70
6752;DHT22;3413;47.680;9.166;2024-02-28T03:06:18;12.80;68.80
6752;DHT22;3413;47.680;9.166;2024-02-28T03:11:20;12.80;68.80
6752;DHT22;3413;47.680;9.166;2024-02-28T03:16:23;12.70;68.70
6752;DHT22;3413;47.680;9.166;2024-02-28T03:21:25;12.60;68.60
6752;DHT22;3413;47.680;9.166;2024-02-28T03:26:27;12.60;68.60
6752;DHT22;3413;47.680;9.166;2024-02-28T03:31:29;12.60;68.60
6752;DHT22;3413;47.680;9.166;2024-02-28T03:36:31;12.60;68.50
6752;DHT22;3413;47.680;9.166;2024-02-28T03:41:34;12.50;68.50
6752;DHT22;3413;47.680;9.166;2024-02-28T03:52:11;12.50;68.60
6752;DHT22;3413;47.680;9.166;2024-02-28T03:57:13;12.40;68.40
6752;DHT22;3413;47.680;9.166;2024-02-28T04:02:15;12.40;68.40
6752;DHT22;3413;47.680;9.166;2024-02-28T04:07:17;12.30;68.40
6752;DHT22;3413;47.680;9.166;2024-02-28T04:12:20;12.40;68.40
6752;DHT22;3413;47.680;9.166;2024-02-28T04:17:22;12.40;68.30
6752;DHT22;3413;47.680;9.166;2024-02-28T04:22:24;12.40;68.10
6752;DHT22;3413;47.680;9.166;2024-02-28T04:32:59;12.50;68.60
6752;DHT22;3413;47.680;9.166;2024-02-28T04:38:01;12.50;68.30
6752;DHT22;3413;47.680;9.166;2024-02-28T04:43:04;12.40;68.40
6752;DHT22;3413;47.680;9.166;2024-02-28T04:48:06;12.20;68.20
6752;DHT22;3413;47.680;9.166;2024-02-28T04:53:08;12.10;68.30
6752;DHT22;3413;47.680;9.166;2024-02-28T04:58:18;12.20;68.30
6752;DHT22;3413;47.680;9.166;2024-02-28T05:03:32;12.20;68.30
6752;DHT22;3413;47.680;9.166;2024-02-28T05:14:34;12.20;68.50
6752;DHT22;3413;47.680;9.166;2024-02-28T05:19:36;12.10;68.10
6752;DHT22;3413;47.680;9.166;2024-02-28T05:24:46;12.00;68.00
6752;DHT22;3413;47.680;9.166;2024-02-28T05:29:48;11.90;68.20
6752;DHT22;3413;47.680;9.166;2024-02-28T05:35:46;11.90;68.00
6752;DHT22;3413;47.680;9.166;2024-02-28T05:41:48;11.90;68.30
6752;DHT22;3413;47.680;9.166;2024-02-28T05:47:48;11.80;67.90
6752;DHT22;3413;47.680;9.166;2024-02-28T06:01:37;11.80;68.00
6752;DHT22;3413;47.680;9.166;2024-02-28T06:15:04;11.60;68.00
6752;DHT22;3413;47.680;9.166;2024-02-28T06:20:10;11.70;67.90
6752;DHT22;3413;47.680;9.166;2024-02-28T06:25:12;11.70;67.80
6752;DHT22;3413;47.680;9.166;2024-02-28T06:30:21;11.80;67.80
6752;DHT22;3413;47.680;9.166;2024-02-28T06:35:24;11.80;67.60
6752;DHT22;3413;47.680;9.166;2024-02-28T06:40:26;11.60;67.50
6752;DHT22;3413;47.680;9.166;2024-02-28T07:11:39;11.30;67.70
6752;DHT22;3413;47.680;9.166;2024-02-28T07:16:41;11.10;67.30
6752;DHT22;3413;47.680;9.166;2024-02-28T07:21:48;11.20;67.40
6752;DHT22;3413;47.680;9.166;2024-02-28T07:26:51;11.20;67.20
6752;DHT22;3413;47.680;9.166;2024-02-28T07:31:53;11.20;67.40
6752;DHT22;3413;47.680;9.166;2024-02-28T07:36:56;11.20;67.40
6752;DHT22;3413;47.680;9.166;2024-02-28T07:41:59;11.20;67.40
6752;DHT22;3413;47.680;9.166;2024-02-28T07:47:01;11.30;67.50
6752;DHT22;3413;47.680;9.166;2024-02-28T07:52:04;11.30;67.30
6752;DHT22;3413;47.680;9.166;2024-02-28T07:57:20;11.50;67.60
6752;DHT22;3413;47.680;9.166;2024-02-28T08:02:41;11.50;67.80
6752;DHT22;3413;47.680;9.166;2024-02-28T08:07:59;11.60;67.80
6752;DHT22;3413;47.680;9.166;2024-02-28T08:13:31;11.60;67.80
6752;DHT22;3413;47.680;9.166;2024-02-28T08:18:48;11.60;67.90
6752;DHT22;3413;47.680;9.166;2024-02-28T08:24:17;11.70;67.90
6752;DHT22;3413;47.680;9.166;2024-02-28T08:29:35;11.70;67.90
6752;DHT22;3413;47.680;9.166;2024-02-28T08:35:19;11.80;68.10
6752;DHT22;3413;47.680;9.166;2024-02-28T08:40:33;11.90;68.00
6752;DHT22;3413;47.680;9.166;2024-02-28T08:52:09;11.90;68.30
6752;DHT22;3413;47.680;9.166;2024-02-28T08:57:24;12.00;68.40
6752;DHT22;3413;47.680;9.166;2024-02-28T09:02:31;12.00;68.10
6752;DHT22;3413;47.680;9.166;2024-02-28T09:07:46;12.10;68.40
6752;DHT22;3413;47.680;9.166;2024-02-28T09:26:51;12.20;68.50
6752;DHT22;3413;47.680;9.166;2024-02-28T09:32:07;12.20;68.40
6752;DHT22;3413;47.680;9.166;2024-02-28T09:37:55;12.30;68.80
6752;DHT22;3413;47.680;9.166;2024-02-28T09:43:28;12.30;68.80
6752;DHT22;3413;47.680;9.166;2024-02-28T09:49:03;12.40;68.80
6752;DHT22;3413;47.680;9.166;2024-02-28T09:54:57;12.50;68.90
6752;DHT22;3413;47.680;9.166;2024-02-28T10:07:12;12.60;68.90
6752;DHT22;3413;47.680;9.166;2024-02-28T10:12:15;12.60;68.80
6752;DHT22;3413;47.680;9.166;2024-02-28T10:17:17;12.60;68.70
6752;DHT22;3413;47.680;9.166;2024-02-28T10:22:20;12.60;68.60
6752;DHT22;3413;47.680;9.166;2024-02-28T10:27:23;12.50;68.60
6752;DHT22;3413;47.680;9.166;2024-02-28T10:32:25;12.60;68.40
6752;DHT22;3413;47.680;9.166;2024-02-28T10:43:34;12.50;68.20
6752;DHT22;3413;47.680;9.166;2024-02-28T10:48:36;12.50;68.20
6752;DHT22;3413;47.680;9.166;2024-02-28T11:14:14;12.60;68.40
6752;DHT22;3413;47.680;9.166;2024-02-28T11:38:59;12.80;69.20
6752;DHT22;3413;47.680;9.166;2024-02-28T11:44:02;13.00;69.10
6752;DHT22;3413;47.680;9.166;2024-02-28T11:49:04;13.20;69.00
6752;DHT22;3413;47.680;9.166;2024-02-28T11:54:08;13.40;69.50
6752;DHT22;3413;47.680;9.166;2024-02-28T11:59:13;13.40;69.40
6752;DHT22;3413;47.680;9.166;2024-02-28T12:04:16;13.60;69.50
6752;DHT22;3413;47.680;9.166;2024-02-28T12:09:19;13.60;69.50
6752;DHT22;3413;47.680;9.166;2024-02-28T12:14:35;13.80;69.70
6752;DHT22;3413;47.680;9.166;2024-02-28T12:19:41;13.90;70.00
6752;DHT22;3413;47.680;9.166;2024-02-28T12:24:44;14.00;69.90
6752;DHT22;3413;47.680;9.166;2024-02-28T12:29:47;14.10;69.70
6752;DHT22;3413;47.680;9.166;2024-02-28T12:34:49;14.10;69.70
6752;DHT22;3413;47.680;9.166;2024-02-28T12:45:28;14.10;70.00
6752;DHT22;3413;47.680;9.166;2024-02-28T12:56:42;14.00;69.80
6752;DHT22;3413;47.680;9.166;2024-02-28T13:01:45;14.10;69.60
6752;DHT22;3413;47.680;9.166;2024-02-28T13:25:31;13.90;69.90
6752;DHT22;3413;47.680;9.166;2024-02-28T13:37:09;14.00;69.90
6752;DHT22;3413;47.680;9.166;2024-02-28T13:42:12;13.90;69.70
6752;DHT22;3413;47.680;9.166;2024-02-28T13:47:15;13.90;69.70
6752;DHT22;3413;47.680;9.166;2024-02-28T13:52:18;13.90;69.70
6752;DHT22;3413;47.680;9.166;2024-02-28T13:57:20;13.90;69.80
6752;DHT22;3413;47.680;9.166;2024-02-28T14:02:23;14.00;69.70
6752;DHT22;3413;47.680;9.166;2024-02-28T14:07:29;14.10;69.70
6752;DHT22;3413;47.680;9.166;2024-02-28T14:12:31;14.10;69.60
6752;DHT22;3413;47.680;9.166;2024-02-28T14:17:33;14.10;69.80
6752;DHT22;3413;47.680;9.166;2024-02-28T14:22:35;14.10;69.70
6752;DHT22;3413;47.680;9.166;2024-02-28T14:27:37;13.90;69.40
6752;DHT22;3413;47.680;9.166;2024-02-28T14:32:40;13.80;69.30
6752;DHT22;3413;47.680;9.166;2024-02-28T14:37:42;13.80;69.20
6752;DHT22;3413;47.680;9.166;2024-02-28T14:42:45;13.70;69.00
6752;DHT22;3413;47.680;9.166;2024-02-28T14:47:47;13.70;68.90
6752;DHT22;3413;47.680;9.166;2024-02-28T14:52:49;13.70;69.00
6752;DHT22;3413;47.680;9.166;2024-02-28T14:57:51;13.60;69.10
6752;DHT22;3413;47.680;9.166;2024-02-28T15:02:53;13.60;68.90
6752;DHT22;3413;47.680;9.166;2024-02-28T15:07:56;13.60;68.80
6752;DHT22;3413;47.680;9.166;2024-02-28T15:12:57;13.60;68.80
6752;DHT22;3413;47.680;9.166;2024-02-28T15:17:59;13.40;68.90
6752;DHT22;3413;47.680;9.166;2024-02-28T15:23:03;13.40;68.70
6752;DHT22;3413;47.680;9.166;2024-02-28T15:28:06;13.30;68.50
6752;DHT22;3413;47.680;9.166;2024-02-28T15:33:08;13.10;68.70
6752;DHT22;3413;47.680;9.166;2024-02-28T15:38:10;13.00;68.80
6752;DHT22;3413;47.680;9.166;2024-02-28T15:43:14;12.90;69.00
6752;DHT22;3413;47.680;9.166;2024-02-28T15:48:16;13.00;68.90
6752;DHT22;3413;47.680;9.166;2024-02-28T15:53:19;13.00;68.90
6752;DHT22;3413;47.680;9.166;2024-02-28T15:58:21;13.00;69.00
6752;DHT22;3413;47.680;9.166;2024-02-28T16:03:23;13.00;69.00
6752;DHT22;3413;47.680;9.166;2024-02-28T16:08:25;13.00;69.50
6752;DHT22;3413;47.680;9.166;2024-02-28T16:13:26;13.10;69.00
6752;DHT22;3413;47.680;9.166;2024-02-28T16:18:30;13.20;69.10
6752;DHT22;3413;47.680;9.166;2024-02-28T16:23:32;13.20;69.10
6752;DHT22;3413;47.680;9.166;2024-02-28T16:28:36;13.20;69.20
6752;DHT22;3413;47.680;9.166;2024-02-28T16:33:37;13.30;69.30
6752;DHT22;3413;47.680;9.166;2024-02-28T16:38:42;13.20;69.10
6752;DHT22;3413;47.680;9.166;2024-02-28T16:43:48;13.10;68.90
6752;DHT22;3413;47.680;9.166;2024-02-28T16:48:51;13.00;69.70
6752;DHT22;3413;47.680;9.166;2024-02-28T16:53:53;13.00;69.10
6752;DHT22;3413;47.680;9.166;2024-02-28T16:58:55;13.00;69.20
6752;DHT22;3413;47.680;9.166;2024-02-28T17:03:57;13.10;69.20
6752;DHT22;3413;47.680;9.166;2024-02-28T17:08:59;13.20;69.10
6752;DHT22;3413;47.680;9.166;2024-02-28T17:14:01;13.20;69.10
6752;DHT22;3413;47.680;9.166;2024-02-28T17:19:03;13.20;69.10
6752;DHT22;3413;47.680;9.166;2024-02-28T17:24:06;13.10;68.90
6752;DHT22;3413;47.680;9.166;2024-02-28T17:29:08;13.10;69.00
6752;DHT22;3413;47.680;9.166;2024-02-28T17:34:12;13.00;69.20
6752;DHT22;3413;47.680;9.166;2024-02-28T17:39:16;13.00;69.10
6752;DHT22;3413;47.680;9.166;2024-02-28T17:44:20;13.10;69.10
6752;DHT22;3413;47.680;9.166;2024-02-28T17:49:22;13.10;69.10
6752;DHT22;3413;47.680;9.166;2024-02-28T17:54:25;13.10;69.10
6752;DHT22;3413;47.680;9.166;2024-02-28T17:59:27;13.10;69.20
6752;DHT22;3413;47.680;9.166;2024-02-28T18:04:30;13.20;69.30
6752;DHT22;3413;47.680;9.166;2024-02-28T18:09:32;13.20;69.30
6752;DHT22;3413;47.680;9.166;2024-02-28T18:14:33;13.30;69.40
6752;DHT22;3413;47.680;9.166;2024-02-28T18:19:37;13.20;69.30
6752;DHT22;3413;47.680;9.166;2024-02-28T18:24:40;13.20;69.50
6752;DHT22;3413;47.680;9.166;2024-02-28T18:29:42;13.20;69.40
6752;DHT22;3413;47.680;9.166;2024-02-28T18:34:44;13.20;69.60
6752;DHT22;3413;47.680;9.166;2024-02-28T18:39:46;13.20;69.50
6752;DHT22;3413;47.680;9.166;2024-02-28T18:44:54;13.30;69.60
6752;DHT22;3413;47.680;9.166;2024-02-28T18:49:56;13.20;69.60
6752;DHT22;3413;47.680;9.166;2024-02-28T18:54:58;13.20;69.60
6752;DHT22;3413;47.680;9.166;2024-02-28T19:00:00;13.10;69.60
6752;DHT22;3413;47.680;9.166;2024-02-28T19:05:02;13.20;69.70
6752;DHT22;3413;47.680;9.166;2024-02-28T19:10:04;13.20;69.60
6752;DHT22;3413;47.680;9.166;2024-02-28T19:15:07;13.20;69.60
6752;DHT22;3413;47.680;9.166;2024-02-28T19:20:10;13.30;69.70
6752;DHT22;3413;47.680;9.166;2024-02-28T19:25:12;13.30;69.70
6752;DHT22;3413;47.680;9.166;2024-02-28T19:30:14;13.20;69.60
6752;DHT22;3413;47.680;9.166;2024-02-28T19:35:16;13.20;69.60
6752;DHT22;3413;47.680;9.166;2024-02-28T19:40:18;13.20;69.70
6752;DHT22;3413;47.680;9.166;2024-02-28T19:45:20;13.20;70.40
6752;DHT22;3413;47.680;9.166;2024-02-28T19:50:24;13.20;69.80
6752;DHT22;3413;47.680;9.166;2024-02-28T19:55:26;13.20;69.80
6752;DHT22;3413;47.680;9.166;2024-02-28T20:00:28;13.20;69.80
6752;DHT22;3413;47.680;9.166;2024-02-28T20:05:30;13.20;69.80
6752;DHT22;3413;47.680;9.166;2024-02-28T20:10:32;13.20;69.80
6752;DHT22;3413;47.680;9.166;2024-02-28T20:15:37;13.10;69.70
6752;DHT22;3413;47.680;9.166;2024-02-28T20:20:39;13.10;69.70
6752;DHT22;3413;47.680;9.166;2024-02-28T20:25:41;13.00;69.60
6752;DHT22;3413;47.680;9.166;2024-02-28T20:30:43;13.00;69.70
6752;DHT22;3413;47.680;9.166;2024-02-28T20:35:46;12.90;69.70
6752;DHT22;3413;47.680;9.166;2024-02-28T20:40:48;12.90;69.70
6752;DHT22;3413;47.680;9.166;2024-02-28T20:45:50;12.80;69.60
6752;DHT22;3413;47.680;9.166;2024-02-28T20:50:52;12.80;69.60
6752;DHT22;3413;47.680;9.166;2024-02-28T20:55:54;12.70;69.60
6752;DHT22;3413;47.680;9.166;2024-02-28T21:00:57;12.70;69.60
6752;DHT22;3413;47.680;9.166;2024-02-28T21:06:00;12.70;69.50
6752;DHT22;3413;47.680;9.166;2024-02-28T21:11:02;12.70;69.60
6752;DHT22;3413;47.680;9.166;2024-02-28T21:16:04;12.60;69.60
6752;DHT22;3413;47.680;9.166;2024-02-28T21:21:06;12.50;69.60
6752;DHT22;3413;47.680;9.166;2024-02-28T21:26:08;12.40;69.60
6752;DHT22;3413;47.680;9.166;2024-02-28T21:31:09;12.40;69.50
6752;DHT22;3413;47.680;9.166;2024-02-28T21:36:13;12.30;69.50
6752;DHT22;3413;47.680;9.166;2024-02-28T21:41:15;12.30;69.40
6752;DHT22;3413;47.680;9.166;2024-02-28T21:46:20;12.10;69.30
6752;DHT22;3413;47.680;9.166;2024-02-28T21:51:22;12.00;69.30
6752;DHT22;3413;47.680;9.166;2024-02-28T21:56:24;12.00;69.30
6752;DHT22;3413;47.680;9.166;2024-02-28T22:01:26;12.00;69.30
6752;DHT22;3413;47.680;9.166;2024-02-28T22:06:29;12.10;69.30
6752;DHT22;3413;47.680;9.166;2024-02-28T22:11:31;12.10;69.30
6752;DHT22;3413;47.680;9.166;2024-02-28T22:16:33;12.00;69.20
6752;DHT22;3413;47.680;9.166;2024-02-28T22:21:35;12.00;69.20
6752;DHT22;3413;47.680;9.166;2024-02-28T22:26:37;12.00;69.20
6752;DHT22;3413;47.680;9.166;2024-02-28T22:31:39;11.90;69.10
6752;DHT22;3413;47.680;9.166;2024-02-28T22:36:41;11.90;69.20
6752;DHT22;3413;47.680;9.166;2024-02-28T22:41:43;11.80;69.00
6752;DHT22;3413;47.680;9.166;2024-02-28T22:46:45;11.60;69.10
6752;DHT22;3413;47.680;9.166;2024-02-28T22:51:47;11.60;69.10
6752;DHT22;3413;47.680;9.166;2024-02-28T22:56:49;11.60;69.10
6752;DHT22;3413;47.680;9.166;2024-02-28T23:01:51;11.50;68.90
6752;DHT22;3413;47.680;9.166;2024-02-28T23:06:55;11.50;69.00
6752;DHT22;3413;47.680;9.166;2024-02-28T23:11:57;11.40;68.90
6752;DHT22;3413;47.680;9.166;2024-02-28T23:16:59;11.40;68.90
6752;DHT22;3413;47.680;9.166;2024-02-28T23:22:01;11.40;68.90
6752;DHT22;3413;47.680;9.166;2024-02-28T23:27:04;11.40;69.00
6752;DHT22;3413;47.680;9.166;2024-02-28T23:32:06;11.40;68.90
6752;DHT22;3413;47.680;9.166;2024-02-28T23:37:07;11.40;68.80
6752;DHT22;3413;47.680;9.166;2024-02-28T23:42:10;11.40;69.00
6752;DHT22;3413;47.680;9.166;2024-02-28T23:47:12;11.40;69.00
6752;DHT22;3413;47.680;9.166;2024-02-28T23:52:14;11.40;68.90
6752;DHT22;3413;47.680;9.166;2024-02-28T23:57:16;11.50;68.90
